sensor_id;sensor_type;location;lat;lon;timestamp;P1;durP1;ratioP1;P2;durP2;ratioP2
7965;SDS011;4028;43.272;26.932;2023-02-15T00:01:27;25.27;;;16.67;;
7965;SDS011;4028;43.272;26.932;2023-02-15T00:03:52;21.50;;;16.43;;
7965;SDS011;4028;43.272;26.932;2023-02-15T00:06:18;24.47;;;17.00;;
7965;SDS011;4028;43.272;26.932;2023-02-15T00:08:43;21.50;;;16.60;;
7965;SDS011;4028;43.272;26.932;2023-02-15T00:13:35;23.33;;;16.07;;
7965;SDS011;4028;43.272;26.932;2023-02-15T00:16:04;21.93;;;16.07;;
7965;SDS011;4028;43.272;26.932;2023-02-15T00:18:31;26.67;;;16.73;;
7965;SDS011;4028;43.272;26.932;2023-02-15T00:20:56;24.17;;;16.17;;
7965;SDS011;4028;43.272;26.932;2023-02-15T00:23:22;23.60;;;16.30;;
7965;SDS011;4028;43.272;26.932;2023-02-15T00:25:47;23.53;;;16.87;;
7965;SDS011;4028;43.272;26.932;2023-02-15T00:28:13;22.43;;;16.03;;
7965;SDS011;4028;43.272;26.932;2023-02-15T00:30:38;21.30;;;16.70;;
7965;SDS011;4028;43.272;26.932;2023-02-15T00:33:04;22.67;;;16.50;;
7965;SDS011;4028;43.272;26.932;2023-02-15T00:35:29;25.63;;;16.93;;
7965;SDS011;4028;43.272;26.932;2023-02-15T00:37:58;27.00;;;16.90;;
7965;SDS011;4028;43.272;26.932;2023-02-15T00:40:23;21.73;;;16.40;;
7965;SDS011;4028;43.272;26.932;2023-02-15T00:42:49;22.57;;;16.20;;
7965;SDS011;4028;43.272;26.932;2023-02-15T00:45:14;24.73;;;16.63;;
7965;SDS011;4028;43.272;26.932;2023-02-15T00:47:40;27.40;;;16.60;;
7965;SDS011;4028;43.272;26.932;2023-02-15T00:50:05;24.30;;;17.23;;
7965;SDS011;4028;43.272;26.932;2023-02-15T00:52:31;24.37;;;16.50;;
7965;SDS011;4028;43.272;26.932;2023-02-15T00:54:57;24.03;;;16.47;;
7965;SDS011;4028;43.272;26.932;2023-02-15T00:57:22;23.73;;;16.57;;
7965;SDS011;4028;43.272;26.932;2023-02-15T00:59:48;21.70;;;15.50;;
7965;SDS011;4028;43.272;26.932;2023-02-15T01:02:13;32.50;;;19.63;;
7965;SDS011;4028;43.272;26.932;2023-02-15T01:04:39;26.10;;;16.60;;
7965;SDS011;4028;43.272;26.932;2023-02-15T01:07:04;22.53;;;15.67;;
7965;SDS011;4028;43.272;26.932;2023-02-15T01:09:30;21.47;;;16.23;;
7965;SDS011;4028;43.272;26.932;2023-02-15T01:11:55;21.20;;;16.53;;
7965;SDS011;4028;43.272;26.932;2023-02-15T01:14:22;24.67;;;16.43;;
7965;SDS011;4028;43.272;26.932;2023-02-15T01:16:47;24.23;;;16.63;;
7965;SDS011;4028;43.272;26.932;2023-02-15T01:19:13;25.77;;;18.13;;
7965;SDS011;4028;43.272;26.932;2023-02-15T01:21:38;32.63;;;19.47;;
7965;SDS011;4028;43.272;26.932;2023-02-15T01:24:10;46.30;;;25.43;;
7965;SDS011;4028;43.272;26.932;2023-02-15T01:26:37;28.40;;;17.70;;
7965;SDS011;4028;43.272;26.932;2023-02-15T01:29:02;50.13;;;26.67;;
7965;SDS011;4028;43.272;26.932;2023-02-15T01:31:28;52.77;;;28.43;;
7965;SDS011;4028;43.272;26.932;2023-02-15T01:33:53;53.67;;;29.40;;
7965;SDS011;4028;43.272;26.932;2023-02-15T01:36:19;39.80;;;22.37;;
7965;SDS011;4028;43.272;26.932;2023-02-15T01:38:44;62.17;;;32.20;;
7965;SDS011;4028;43.272;26.932;2023-02-15T01:41:10;41.97;;;23.87;;
7965;SDS011;4028;43.272;26.932;2023-02-15T01:43:46;24.20;;;17.37;;
7965;SDS011;4028;43.272;26.932;2023-02-15T01:46:14;24.37;;;16.33;;
7965;SDS011;4028;43.272;26.932;2023-02-15T01:48:50;25.33;;;17.23;;
7965;SDS011;4028;43.272;26.932;2023-02-15T01:51:22;23.10;;;17.30;;
7965;SDS011;4028;43.272;26.932;2023-02-15T01:53:55;23.13;;;17.07;;
7965;SDS011;4028;43.272;26.932;2023-02-15T01:56:27;24.07;;;15.97;;
7965;SDS011;4028;43.272;26.932;2023-02-15T01:58:57;22.10;;;16.17;;
7965;SDS011;4028;43.272;26.932;2023-02-15T02:01:28;23.87;;;15.33;;
7965;SDS011;4028;43.272;26.932;2023-02-15T02:06:27;22.77;;;15.50;;
7965;SDS011;4028;43.272;26.932;2023-02-15T02:08:53;23.50;;;15.70;;
7965;SDS011;4028;43.272;26.932;2023-02-15T02:11:20;21.97;;;15.83;;
7965;SDS011;4028;43.272;26.932;2023-02-15T02:13:45;23.83;;;15.80;;
7965;SDS011;4028;43.272;26.932;2023-02-15T02:19:01;22.67;;;16.80;;
7965;SDS011;4028;43.272;26.932;2023-02-15T02:24:31;22.90;;;15.27;;
7965;SDS011;4028;43.272;26.932;2023-02-15T02:27:22;20.37;;;13.60;;
7965;SDS011;4028;43.272;26.932;2023-02-15T02:35:16;19.50;;;13.47;;
7965;SDS011;4028;43.272;26.932;2023-02-15T02:43:11;17.27;;;10.87;;
7965;SDS011;4028;43.272;26.932;2023-02-15T02:45:53;18.03;;;10.87;;
7965;SDS011;4028;43.272;26.932;2023-02-15T02:48:24;14.20;;;10.70;;
7965;SDS011;4028;43.272;26.932;2023-02-15T02:50:52;20.10;;;12.53;;
7965;SDS011;4028;43.272;26.932;2023-02-15T02:53:18;13.37;;;10.77;;
7965;SDS011;4028;43.272;26.932;2023-02-15T02:55:48;16.80;;;10.93;;
7965;SDS011;4028;43.272;26.932;2023-02-15T02:58:31;16.30;;;11.43;;
7965;SDS011;4028;43.272;26.932;2023-02-15T03:01:15;17.53;;;11.23;;
7965;SDS011;4028;43.272;26.932;2023-02-15T03:04:01;17.23;;;11.20;;
7965;SDS011;4028;43.272;26.932;2023-02-15T03:06:51;15.53;;;11.57;;
7965;SDS011;4028;43.272;26.932;2023-02-15T03:09:43;16.70;;;11.53;;
7965;SDS011;4028;43.272;26.932;2023-02-15T03:12:11;16.33;;;11.73;;
7965;SDS011;4028;43.272;26.932;2023-02-15T03:14:40;16.23;;;12.03;;
7965;SDS011;4028;43.272;26.932;2023-02-15T03:17:08;20.03;;;12.50;;
7965;SDS011;4028;43.272;26.932;2023-02-15T03:19:36;15.93;;;11.37;;
7965;SDS011;4028;43.272;26.932;2023-02-15T03:22:08;18.50;;;11.73;;
7965;SDS011;4028;43.272;26.932;2023-02-15T03:24:59;15.57;;;11.40;;
7965;SDS011;4028;43.272;26.932;2023-02-15T03:27:33;17.23;;;10.90;;
7965;SDS011;4028;43.272;26.932;2023-02-15T03:30:03;16.43;;;10.93;;
7965;SDS011;4028;43.272;26.932;2023-02-15T03:32:31;18.00;;;10.80;;
7965;SDS011;4028;43.272;26.932;2023-02-15T03:34:59;18.80;;;11.10;;
7965;SDS011;4028;43.272;26.932;2023-02-15T03:37:41;16.00;;;10.73;;
7965;SDS011;4028;43.272;26.932;2023-02-15T03:45:40;15.87;;;10.10;;
7965;SDS011;4028;43.272;26.932;2023-02-15T03:48:40;13.03;;;8.73;;
7965;SDS011;4028;43.272;26.932;2023-02-15T03:51:08;17.27;;;10.90;;
7965;SDS011;4028;43.272;26.932;2023-02-15T03:53:55;18.83;;;11.30;;
7965;SDS011;4028;43.272;26.932;2023-02-15T03:56:22;17.23;;;11.70;;
7965;SDS011;4028;43.272;26.932;2023-02-15T03:58:49;13.60;;;10.03;;
7965;SDS011;4028;43.272;26.932;2023-02-15T04:01:34;13.27;;;9.97;;
7965;SDS011;4028;43.272;26.932;2023-02-15T04:04:22;13.60;;;9.77;;
7965;SDS011;4028;43.272;26.932;2023-02-15T04:06:59;18.43;;;11.53;;
7965;SDS011;4028;43.272;26.932;2023-02-15T04:09:25;18.83;;;11.47;;
7965;SDS011;4028;43.272;26.932;2023-02-15T04:12:09;15.90;;;10.43;;
7965;SDS011;4028;43.272;26.932;2023-02-15T04:14:35;15.70;;;9.93;;
7965;SDS011;4028;43.272;26.932;2023-02-15T04:17:19;16.53;;;10.97;;
7965;SDS011;4028;43.272;26.932;2023-02-15T04:19:45;16.23;;;10.33;;
7965;SDS011;4028;43.272;26.932;2023-02-15T04:22:29;16.83;;;9.87;;
7965;SDS011;4028;43.272;26.932;2023-02-15T04:25:13;13.73;;;9.87;;
7965;SDS011;4028;43.272;26.932;2023-02-15T04:27:39;14.93;;;10.50;;
7965;SDS011;4028;43.272;26.932;2023-02-15T04:30:07;18.43;;;10.23;;
7965;SDS011;4028;43.272;26.932;2023-02-15T04:32:34;18.57;;;11.83;;
7965;SDS011;4028;43.272;26.932;2023-02-15T04:35:00;17.50;;;10.73;;
7965;SDS011;4028;43.272;26.932;2023-02-15T04:37:26;14.77;;;10.47;;
7965;SDS011;4028;43.272;26.932;2023-02-15T04:39:51;18.47;;;11.83;;
7965;SDS011;4028;43.272;26.932;2023-02-15T04:42:17;17.20;;;11.93;;
7965;SDS011;4028;43.272;26.932;2023-02-15T04:44:43;13.90;;;11.37;;
7965;SDS011;4028;43.272;26.932;2023-02-15T04:47:08;17.60;;;11.17;;
7965;SDS011;4028;43.272;26.932;2023-02-15T04:49:34;16.87;;;11.17;;
7965;SDS011;4028;43.272;26.932;2023-02-15T04:52:00;19.73;;;12.17;;
7965;SDS011;4028;43.272;26.932;2023-02-15T04:54:25;16.33;;;10.30;;
7965;SDS011;4028;43.272;26.932;2023-02-15T04:56:51;22.57;;;12.10;;
7965;SDS011;4028;43.272;26.932;2023-02-15T04:59:16;17.77;;;10.67;;
7965;SDS011;4028;43.272;26.932;2023-02-15T05:01:42;14.67;;;10.73;;
7965;SDS011;4028;43.272;26.932;2023-02-15T05:04:07;18.67;;;12.27;;
7965;SDS011;4028;43.272;26.932;2023-02-15T05:06:33;22.20;;;13.77;;
7965;SDS011;4028;43.272;26.932;2023-02-15T05:08:58;36.33;;;19.77;;
7965;SDS011;4028;43.272;26.932;2023-02-15T05:11:24;19.87;;;12.97;;
7965;SDS011;4028;43.272;26.932;2023-02-15T05:13:50;19.20;;;11.93;;
7965;SDS011;4028;43.272;26.932;2023-02-15T05:16:16;19.53;;;12.90;;
7965;SDS011;4028;43.272;26.932;2023-02-15T05:18:42;16.23;;;11.60;;
7965;SDS011;4028;43.272;26.932;2023-02-15T05:21:08;22.13;;;12.57;;
7965;SDS011;4028;43.272;26.932;2023-02-15T05:23:33;21.80;;;13.87;;
7965;SDS011;4028;43.272;26.932;2023-02-15T05:25:59;23.97;;;16.47;;
7965;SDS011;4028;43.272;26.932;2023-02-15T05:28:43;16.40;;;11.63;;
7965;SDS011;4028;43.272;26.932;2023-02-15T05:31:16;20.13;;;14.20;;
7965;SDS011;4028;43.272;26.932;2023-02-15T05:33:43;17.57;;;11.77;;
7965;SDS011;4028;43.272;26.932;2023-02-15T05:36:09;18.33;;;11.83;;
7965;SDS011;4028;43.272;26.932;2023-02-15T05:38:35;15.57;;;10.90;;
7965;SDS011;4028;43.272;26.932;2023-02-15T05:41:04;21.47;;;11.77;;
7965;SDS011;4028;43.272;26.932;2023-02-15T05:43:31;16.90;;;11.40;;
7965;SDS011;4028;43.272;26.932;2023-02-15T05:45:56;20.03;;;12.50;;
7965;SDS011;4028;43.272;26.932;2023-02-15T05:48:23;16.40;;;12.10;;
7965;SDS011;4028;43.272;26.932;2023-02-15T05:50:56;15.93;;;12.00;;
7965;SDS011;4028;43.272;26.932;2023-02-15T05:53:23;18.37;;;12.67;;
7965;SDS011;4028;43.272;26.932;2023-02-15T05:55:49;16.33;;;11.17;;
7965;SDS011;4028;43.272;26.932;2023-02-15T05:58:14;14.57;;;10.37;;
7965;SDS011;4028;43.272;26.932;2023-02-15T06:00:40;15.30;;;11.27;;
7965;SDS011;4028;43.272;26.932;2023-02-15T06:03:05;15.03;;;11.37;;
7965;SDS011;4028;43.272;26.932;2023-02-15T06:05:31;15.37;;;10.63;;
7965;SDS011;4028;43.272;26.932;2023-02-15T06:07:56;15.90;;;10.03;;
7965;SDS011;4028;43.272;26.932;2023-02-15T06:10:21;18.07;;;11.90;;
7965;SDS011;4028;43.272;26.932;2023-02-15T06:12:47;19.33;;;10.57;;
7965;SDS011;4028;43.272;26.932;2023-02-15T06:15:12;16.47;;;11.10;;
7965;SDS011;4028;43.272;26.932;2023-02-15T06:17:40;19.63;;;12.57;;
7965;SDS011;4028;43.272;26.932;2023-02-15T06:20:07;16.83;;;11.47;;
7965;SDS011;4028;43.272;26.932;2023-02-15T06:22:33;19.37;;;11.83;;
7965;SDS011;4028;43.272;26.932;2023-02-15T06:24:58;16.00;;;11.70;;
7965;SDS011;4028;43.272;26.932;2023-02-15T06:27:24;16.80;;;11.10;;
7965;SDS011;4028;43.272;26.932;2023-02-15T06:29:50;20.83;;;11.47;;
7965;SDS011;4028;43.272;26.932;2023-02-15T06:32:15;14.73;;;10.53;;
7965;SDS011;4028;43.272;26.932;2023-02-15T06:34:40;15.10;;;10.70;;
7965;SDS011;4028;43.272;26.932;2023-02-15T06:37:06;18.37;;;11.13;;
7965;SDS011;4028;43.272;26.932;2023-02-15T06:39:33;17.60;;;11.63;;
7965;SDS011;4028;43.272;26.932;2023-02-15T06:41:59;16.97;;;11.10;;
7965;SDS011;4028;43.272;26.932;2023-02-15T06:44:24;15.80;;;11.03;;
7965;SDS011;4028;43.272;26.932;2023-02-15T06:46:50;16.00;;;11.17;;
7965;SDS011;4028;43.272;26.932;2023-02-15T06:49:15;19.53;;;12.00;;
7965;SDS011;4028;43.272;26.932;2023-02-15T06:51:40;17.40;;;11.03;;
7965;SDS011;4028;43.272;26.932;2023-02-15T06:54:06;18.37;;;10.83;;
7965;SDS011;4028;43.272;26.932;2023-02-15T06:56:31;17.43;;;10.73;;
7965;SDS011;4028;43.272;26.932;2023-02-15T06:58:57;13.17;;;10.30;;
7965;SDS011;4028;43.272;26.932;2023-02-15T07:01:22;15.60;;;10.27;;
7965;SDS011;4028;43.272;26.932;2023-02-15T07:03:48;13.63;;;10.73;;
7965;SDS011;4028;43.272;26.932;2023-02-15T07:06:13;19.67;;;11.50;;
7965;SDS011;4028;43.272;26.932;2023-02-15T07:08:39;16.53;;;12.33;;
7965;SDS011;4028;43.272;26.932;2023-02-15T07:11:05;16.17;;;10.37;;
7965;SDS011;4028;43.272;26.932;2023-02-15T07:13:49;13.47;;;10.90;;
7965;SDS011;4028;43.272;26.932;2023-02-15T07:16:17;16.97;;;11.00;;
7965;SDS011;4028;43.272;26.932;2023-02-15T07:18:43;12.63;;;9.97;;
7965;SDS011;4028;43.272;26.932;2023-02-15T07:21:09;12.97;;;11.57;;
7965;SDS011;4028;43.272;26.932;2023-02-15T07:23:35;14.37;;;11.73;;
7965;SDS011;4028;43.272;26.932;2023-02-15T07:26:01;13.40;;;11.33;;
7965;SDS011;4028;43.272;26.932;2023-02-15T07:28:27;14.50;;;11.33;;
7965;SDS011;4028;43.272;26.932;2023-02-15T07:30:53;16.80;;;12.83;;
7965;SDS011;4028;43.272;26.932;2023-02-15T07:33:19;15.77;;;12.23;;
7965;SDS011;4028;43.272;26.932;2023-02-15T07:35:58;17.47;;;12.77;;
7965;SDS011;4028;43.272;26.932;2023-02-15T07:38:27;17.33;;;12.63;;
7965;SDS011;4028;43.272;26.932;2023-02-15T07:40:57;13.23;;;10.87;;
7965;SDS011;4028;43.272;26.932;2023-02-15T07:43:27;18.70;;;12.27;;
7965;SDS011;4028;43.272;26.932;2023-02-15T07:45:54;12.57;;;11.23;;
7965;SDS011;4028;43.272;26.932;2023-02-15T07:48:19;15.07;;;11.43;;
7965;SDS011;4028;43.272;26.932;2023-02-15T07:50:45;16.40;;;13.23;;
7965;SDS011;4028;43.272;26.932;2023-02-15T07:53:10;23.17;;;14.80;;
7965;SDS011;4028;43.272;26.932;2023-02-15T07:55:36;16.40;;;11.23;;
7965;SDS011;4028;43.272;26.932;2023-02-15T07:58:01;13.47;;;11.33;;
7965;SDS011;4028;43.272;26.932;2023-02-15T08:00:27;15.80;;;11.70;;
7965;SDS011;4028;43.272;26.932;2023-02-15T08:02:55;13.90;;;11.27;;
7965;SDS011;4028;43.272;26.932;2023-02-15T08:05:43;17.17;;;11.53;;
7965;SDS011;4028;43.272;26.932;2023-02-15T08:08:09;13.30;;;10.10;;
7965;SDS011;4028;43.272;26.932;2023-02-15T08:10:58;12.77;;;10.93;;
7965;SDS011;4028;43.272;26.932;2023-02-15T08:13:50;14.27;;;11.03;;
7965;SDS011;4028;43.272;26.932;2023-02-15T08:16:28;16.57;;;11.10;;
7965;SDS011;4028;43.272;26.932;2023-02-15T08:18:58;13.63;;;10.30;;
7965;SDS011;4028;43.272;26.932;2023-02-15T08:21:26;17.90;;;11.40;;
7965;SDS011;4028;43.272;26.932;2023-02-15T08:23:53;14.17;;;11.60;;
7965;SDS011;4028;43.272;26.932;2023-02-15T08:26:20;16.83;;;11.67;;
7965;SDS011;4028;43.272;26.932;2023-02-15T08:28:46;14.37;;;12.20;;
7965;SDS011;4028;43.272;26.932;2023-02-15T08:31:13;15.30;;;10.90;;
7965;SDS011;4028;43.272;26.932;2023-02-15T08:33:41;13.50;;;10.90;;
7965;SDS011;4028;43.272;26.932;2023-02-15T08:36:09;12.80;;;10.90;;
7965;SDS011;4028;43.272;26.932;2023-02-15T08:38:37;17.67;;;12.40;;
7965;SDS011;4028;43.272;26.932;2023-02-15T08:43:37;15.37;;;12.70;;
7965;SDS011;4028;43.272;26.932;2023-02-15T08:46:04;12.87;;;10.70;;
7965;SDS011;4028;43.272;26.932;2023-02-15T08:48:30;14.50;;;11.10;;
7965;SDS011;4028;43.272;26.932;2023-02-15T08:50:56;16.67;;;12.10;;
7965;SDS011;4028;43.272;26.932;2023-02-15T08:53:21;12.63;;;10.53;;
7965;SDS011;4028;43.272;26.932;2023-02-15T08:55:47;14.47;;;11.20;;
7965;SDS011;4028;43.272;26.932;2023-02-15T08:58:20;13.83;;;11.33;;
7965;SDS011;4028;43.272;26.932;2023-02-15T09:00:46;13.07;;;10.97;;
7965;SDS011;4028;43.272;26.932;2023-02-15T09:03:11;17.30;;;12.73;;
7965;SDS011;4028;43.272;26.932;2023-02-15T09:05:37;21.57;;;14.97;;
7965;SDS011;4028;43.272;26.932;2023-02-15T09:08:02;21.33;;;13.57;;
7965;SDS011;4028;43.272;26.932;2023-02-15T09:10:28;18.90;;;13.67;;
7965;SDS011;4028;43.272;26.932;2023-02-15T09:12:53;17.13;;;11.80;;
7965;SDS011;4028;43.272;26.932;2023-02-15T09:15:19;15.73;;;10.73;;
7965;SDS011;4028;43.272;26.932;2023-02-15T09:17:44;14.57;;;11.73;;
7965;SDS011;4028;43.272;26.932;2023-02-15T09:20:10;17.73;;;13.00;;
7965;SDS011;4028;43.272;26.932;2023-02-15T09:22:35;16.73;;;11.17;;
7965;SDS011;4028;43.272;26.932;2023-02-15T09:25:01;12.83;;;11.30;;
7965;SDS011;4028;43.272;26.932;2023-02-15T09:27:26;14.70;;;12.87;;
7965;SDS011;4028;43.272;26.932;2023-02-15T09:29:52;14.97;;;13.10;;
7965;SDS011;4028;43.272;26.932;2023-02-15T09:32:17;19.07;;;12.90;;
7965;SDS011;4028;43.272;26.932;2023-02-15T09:34:43;18.40;;;14.77;;
7965;SDS011;4028;43.272;26.932;2023-02-15T09:37:08;18.37;;;13.43;;
7965;SDS011;4028;43.272;26.932;2023-02-15T09:39:34;16.37;;;11.17;;
7965;SDS011;4028;43.272;26.932;2023-02-15T09:47:34;20.10;;;13.47;;
7965;SDS011;4028;43.272;26.932;2023-02-15T09:50:15;17.00;;;13.00;;
7965;SDS011;4028;43.272;26.932;2023-02-15T10:20:16;18.97;;;16.57;;
7965;SDS011;4028;43.272;26.932;2023-02-15T10:27:49;15.30;;;11.13;;
7965;SDS011;4028;43.272;26.932;2023-02-15T10:38:45;16.40;;;13.73;;
7965;SDS011;4028;43.272;26.932;2023-02-15T10:42:02;20.20;;;16.50;;
7965;SDS011;4028;43.272;26.932;2023-02-15T10:55:02;13.10;;;11.70;;
7965;SDS011;4028;43.272;26.932;2023-02-15T10:57:55;15.10;;;12.07;;
7965;SDS011;4028;43.272;26.932;2023-02-15T11:00:30;14.07;;;12.20;;
7965;SDS011;4028;43.272;26.932;2023-02-15T11:03:02;13.67;;;12.20;;
7965;SDS011;4028;43.272;26.932;2023-02-15T11:08:15;21.00;;;13.50;;
7965;SDS011;4028;43.272;26.932;2023-02-15T11:10:54;12.83;;;10.90;;
7965;SDS011;4028;43.272;26.932;2023-02-15T11:13:27;13.23;;;10.63;;
7965;SDS011;4028;43.272;26.932;2023-02-15T11:21:33;13.77;;;11.93;;
7965;SDS011;4028;43.272;26.932;2023-02-15T11:26:54;15.00;;;11.43;;
7965;SDS011;4028;43.272;26.932;2023-02-15T11:29:36;12.57;;;10.83;;
7965;SDS011;4028;43.272;26.932;2023-02-15T11:37:46;14.67;;;11.43;;
7965;SDS011;4028;43.272;26.932;2023-02-15T11:40:25;15.80;;;10.83;;
7965;SDS011;4028;43.272;26.932;2023-02-15T11:42:55;19.60;;;13.37;;
7965;SDS011;4028;43.272;26.932;2023-02-15T11:45:27;15.13;;;11.97;;
7965;SDS011;4028;43.272;26.932;2023-02-15T11:47:58;13.17;;;10.97;;
7965;SDS011;4028;43.272;26.932;2023-02-15T11:50:28;15.10;;;11.67;;
7965;SDS011;4028;43.272;26.932;2023-02-15T11:53:01;13.73;;;11.67;;
7965;SDS011;4028;43.272;26.932;2023-02-15T11:55:30;11.80;;;10.23;;
7965;SDS011;4028;43.272;26.932;2023-02-15T12:00:32;15.57;;;11.47;;
7965;SDS011;4028;43.272;26.932;2023-02-15T12:03:07;14.97;;;11.00;;
7965;SDS011;4028;43.272;26.932;2023-02-15T12:05:40;14.73;;;11.70;;
7965;SDS011;4028;43.272;26.932;2023-02-15T12:08:17;16.37;;;11.53;;
7965;SDS011;4028;43.272;26.932;2023-02-15T12:11:00;14.83;;;11.57;;
7965;SDS011;4028;43.272;26.932;2023-02-15T12:13:32;13.43;;;11.33;;
7965;SDS011;4028;43.272;26.932;2023-02-15T12:15:58;14.40;;;11.47;;
7965;SDS011;4028;43.272;26.932;2023-02-15T12:20:59;13.23;;;11.80;;
7965;SDS011;4028;43.272;26.932;2023-02-15T12:23:28;19.77;;;12.67;;
7965;SDS011;4028;43.272;26.932;2023-02-15T12:25:55;15.77;;;12.63;;
7965;SDS011;4028;43.272;26.932;2023-02-15T12:30:55;12.33;;;10.73;;
7965;SDS011;4028;43.272;26.932;2023-02-15T12:36:17;17.70;;;10.20;;
7965;SDS011;4028;43.272;26.932;2023-02-15T12:38:43;13.97;;;10.73;;
7965;SDS011;4028;43.272;26.932;2023-02-15T12:41:26;14.27;;;12.07;;
7965;SDS011;4028;43.272;26.932;2023-02-15T12:44:37;13.53;;;11.03;;
7965;SDS011;4028;43.272;26.932;2023-02-15T12:46:53;14.53;;;11.43;;
7965;SDS011;4028;43.272;26.932;2023-02-15T12:49:37;11.97;;;9.73;;
7965;SDS011;4028;43.272;26.932;2023-02-15T12:52:04;15.17;;;11.37;;
7965;SDS011;4028;43.272;26.932;2023-02-15T12:54:48;15.07;;;10.70;;
7965;SDS011;4028;43.272;26.932;2023-02-15T12:57:21;11.90;;;10.20;;
7965;SDS011;4028;43.272;26.932;2023-02-15T12:59:54;15.10;;;11.60;;
7965;SDS011;4028;43.272;26.932;2023-02-15T13:03:14;13.27;;;10.63;;
7965;SDS011;4028;43.272;26.932;2023-02-15T13:07:59;15.27;;;10.97;;
7965;SDS011;4028;43.272;26.932;2023-02-15T13:10:29;15.17;;;11.73;;
7965;SDS011;4028;43.272;26.932;2023-02-15T13:12:59;16.33;;;11.77;;
7965;SDS011;4028;43.272;26.932;2023-02-15T13:15:32;13.70;;;11.30;;
7965;SDS011;4028;43.272;26.932;2023-02-15T13:18:01;14.17;;;11.10;;
7965;SDS011;4028;43.272;26.932;2023-02-15T13:20:29;14.90;;;11.53;;
7965;SDS011;4028;43.272;26.932;2023-02-15T13:23:00;15.63;;;10.70;;
7965;SDS011;4028;43.272;26.932;2023-02-15T13:25:32;14.30;;;11.10;;
7965;SDS011;4028;43.272;26.932;2023-02-15T13:28:09;14.67;;;10.63;;
7965;SDS011;4028;43.272;26.932;2023-02-15T13:30:42;13.53;;;10.80;;
7965;SDS011;4028;43.272;26.932;2023-02-15T13:33:14;16.27;;;12.00;;
7965;SDS011;4028;43.272;26.932;2023-02-15T13:35:45;12.80;;;11.00;;
7965;SDS011;4028;43.272;26.932;2023-02-15T13:38:45;15.00;;;10.50;;
7965;SDS011;4028;43.272;26.932;2023-02-15T13:41:11;14.63;;;10.57;;
7965;SDS011;4028;43.272;26.932;2023-02-15T14:00:21;13.80;;;10.37;;
7965;SDS011;4028;43.272;26.932;2023-02-15T14:05:27;15.00;;;11.70;;
7965;SDS011;4028;43.272;26.932;2023-02-15T14:11:02;17.97;;;11.40;;
7965;SDS011;4028;43.272;26.932;2023-02-15T14:19:57;16.03;;;10.07;;
7965;SDS011;4028;43.272;26.932;2023-02-15T14:22:37;14.20;;;9.73;;
7965;SDS011;4028;43.272;26.932;2023-02-15T14:28:05;11.43;;;9.53;;
7965;SDS011;4028;43.272;26.932;2023-02-15T14:30:34;12.40;;;9.37;;
7965;SDS011;4028;43.272;26.932;2023-02-15T14:33:06;10.30;;;9.17;;
7965;SDS011;4028;43.272;26.932;2023-02-15T14:35:52;13.60;;;9.13;;
7965;SDS011;4028;43.272;26.932;2023-02-15T14:48:42;15.53;;;10.80;;
7965;SDS011;4028;43.272;26.932;2023-02-15T14:51:09;17.73;;;11.63;;
7965;SDS011;4028;43.272;26.932;2023-02-15T14:53:35;15.07;;;11.93;;
7965;SDS011;4028;43.272;26.932;2023-02-15T14:58:38;21.10;;;12.87;;
7965;SDS011;4028;43.272;26.932;2023-02-15T15:01:25;19.37;;;13.80;;
7965;SDS011;4028;43.272;26.932;2023-02-15T15:03:54;19.53;;;13.77;;
7965;SDS011;4028;43.272;26.932;2023-02-15T15:06:30;16.57;;;11.70;;
7965;SDS011;4028;43.272;26.932;2023-02-15T15:14:08;14.53;;;11.17;;
7965;SDS011;4028;43.272;26.932;2023-02-15T15:19:00;15.40;;;10.60;;
7965;SDS011;4028;43.272;26.932;2023-02-15T15:38:35;29.17;;;18.10;;
7965;SDS011;4028;43.272;26.932;2023-02-15T15:49:37;23.87;;;17.80;;
7965;SDS011;4028;43.272;26.932;2023-02-15T15:52:15;26.17;;;18.73;;
7965;SDS011;4028;43.272;26.932;2023-02-15T15:54:43;26.53;;;19.33;;
7965;SDS011;4028;43.272;26.932;2023-02-15T15:57:15;24.80;;;19.87;;
7965;SDS011;4028;43.272;26.932;2023-02-15T15:59:49;36.33;;;23.00;;
7965;SDS011;4028;43.272;26.932;2023-02-15T16:02:15;35.53;;;24.37;;
7965;SDS011;4028;43.272;26.932;2023-02-15T16:04:42;41.00;;;25.80;;
7965;SDS011;4028;43.272;26.932;2023-02-15T16:09:59;48.07;;;33.43;;
7965;SDS011;4028;43.272;26.932;2023-02-15T16:12:46;46.57;;;30.63;;
7965;SDS011;4028;43.272;26.932;2023-02-15T16:15:15;46.47;;;30.23;;
7965;SDS011;4028;43.272;26.932;2023-02-15T16:17:44;42.07;;;29.47;;
7965;SDS011;4028;43.272;26.932;2023-02-15T16:20:16;43.40;;;30.50;;
7965;SDS011;4028;43.272;26.932;2023-02-15T16:22:46;58.00;;;32.50;;
7965;SDS011;4028;43.272;26.932;2023-02-15T16:28:05;46.60;;;30.37;;
7965;SDS011;4028;43.272;26.932;2023-02-15T16:30:33;45.33;;;30.40;;
7965;SDS011;4028;43.272;26.932;2023-02-15T16:33:04;41.30;;;28.53;;
7965;SDS011;4028;43.272;26.932;2023-02-15T16:35:41;45.37;;;30.90;;
7965;SDS011;4028;43.272;26.932;2023-02-15T16:41:09;51.07;;;30.67;;
7965;SDS011;4028;43.272;26.932;2023-02-15T16:43:37;56.83;;;31.87;;
7965;SDS011;4028;43.272;26.932;2023-02-15T16:46:06;46.00;;;28.60;;
7965;SDS011;4028;43.272;26.932;2023-02-15T16:48:39;56.93;;;31.43;;
7965;SDS011;4028;43.272;26.932;2023-02-15T16:51:08;57.20;;;34.30;;
7965;SDS011;4028;43.272;26.932;2023-02-15T16:53:34;60.83;;;34.87;;
7965;SDS011;4028;43.272;26.932;2023-02-15T16:56:02;62.67;;;34.67;;
7965;SDS011;4028;43.272;26.932;2023-02-15T17:01:15;35.93;;;25.00;;
7965;SDS011;4028;43.272;26.932;2023-02-15T17:03:44;33.37;;;23.60;;
7965;SDS011;4028;43.272;26.932;2023-02-15T17:06:18;31.00;;;22.83;;
7965;SDS011;4028;43.272;26.932;2023-02-15T17:08:48;38.13;;;29.73;;
7965;SDS011;4028;43.272;26.932;2023-02-15T17:11:15;46.30;;;34.17;;
7965;SDS011;4028;43.272;26.932;2023-02-15T17:16:53;43.00;;;32.27;;
7965;SDS011;4028;43.272;26.932;2023-02-15T17:19:25;43.73;;;28.37;;
7965;SDS011;4028;43.272;26.932;2023-02-15T17:22:01;40.87;;;25.60;;
7965;SDS011;4028;43.272;26.932;2023-02-15T17:24:37;40.07;;;26.70;;
7965;SDS011;4028;43.272;26.932;2023-02-15T17:27:05;38.07;;;28.67;;
7965;SDS011;4028;43.272;26.932;2023-02-15T17:29:55;38.50;;;31.10;;
7965;SDS011;4028;43.272;26.932;2023-02-15T17:32:24;39.13;;;27.77;;
7965;SDS011;4028;43.272;26.932;2023-02-15T17:37:31;30.70;;;22.30;;
7965;SDS011;4028;43.272;26.932;2023-02-15T17:40:44;35.43;;;24.87;;
7965;SDS011;4028;43.272;26.932;2023-02-15T17:42:55;36.57;;;26.87;;
7965;SDS011;4028;43.272;26.932;2023-02-15T17:45:21;32.50;;;25.43;;
7965;SDS011;4028;43.272;26.932;2023-02-15T17:47:49;33.97;;;25.10;;
7965;SDS011;4028;43.272;26.932;2023-02-15T17:50:22;34.77;;;25.50;;
7965;SDS011;4028;43.272;26.932;2023-02-15T17:52:50;30.10;;;21.47;;
7965;SDS011;4028;43.272;26.932;2023-02-15T17:55:18;27.63;;;21.50;;
7965;SDS011;4028;43.272;26.932;2023-02-15T17:58:00;35.07;;;21.23;;
7965;SDS011;4028;43.272;26.932;2023-02-15T18:00:28;31.83;;;25.93;;
7965;SDS011;4028;43.272;26.932;2023-02-15T18:03:14;32.43;;;24.37;;
7965;SDS011;4028;43.272;26.932;2023-02-15T18:05:58;33.40;;;22.57;;
7965;SDS011;4028;43.272;26.932;2023-02-15T18:08:43;34.60;;;22.33;;
7965;SDS011;4028;43.272;26.932;2023-02-15T18:11:27;30.33;;;20.63;;
7965;SDS011;4028;43.272;26.932;2023-02-15T18:14:05;29.77;;;21.33;;
7965;SDS011;4028;43.272;26.932;2023-02-15T18:16:34;35.67;;;26.53;;
7965;SDS011;4028;43.272;26.932;2023-02-15T18:19:20;34.13;;;27.67;;
7965;SDS011;4028;43.272;26.932;2023-02-15T18:21:48;35.20;;;24.40;;
7965;SDS011;4028;43.272;26.932;2023-02-15T18:24:23;35.03;;;23.87;;
7965;SDS011;4028;43.272;26.932;2023-02-15T18:26:53;35.77;;;25.40;;